Agua Nueva, Texas
Current Conditions -  °F | °C
As of 4:55 PM on Thursday 23 Oct 2014 (Local Time) from KHBV Reporting Station
Scattered Clouds Scattered Clouds  
Wind Chill: 83°   Ceiling: Unl
Heat Index: 83°   Visibility: 10mi
Dew Point: 56°   Wind: 8mph
Humidity: 39%   Direction: 70°ENE
Pressure: 30.06"   Gusts: NA
Location:  27.0695°N, 98.7494°W
Report Text: KHBV 232155Z AUTO 07007KT 10SM SCT100 28/13 A3006 RMK AO2 T02840133
Loading
Personal Weather Stations






























Interactive Weather Map New forecast layout! Learn more

10-Day Weather Forecast

Advertisements
Track Severe Weather on mobile